Time;durP1;ratioP1;P1;durP2;ratioP2;P2;SDS_P1;SDS_P2;PMS_P1;PMS_P2;Temp;Humidity;BMP_temperature;BMP_pressure;BME280_temperature;BME280_humidity;BME280_pressure;Samples;Min_cycle;Max_cycle;Signal;HPM_P1;HPM_P2
2023/03/20 00:01:20;;;;;;;36.95;21.13;;;8.60;99.90;;;;;;5037975;22;20077;-81
2023/03/20 00:03:46;;;;;;;36.13;21.70;;;8.60;99.90;;;;;;5022363;28;20021;-80
2023/03/20 00:06:21;;;;;;;38.45;20.13;;;8.60;99.90;;;;;;5028317;28;20040;-80
2023/03/20 00:08:49;;;;;;;39.65;23.00;;;8.60;99.90;;;;;;5023992;28;20037;-80
2023/03/20 00:11:28;;;;;;;43.28;22.73;;;8.60;99.90;;;;;;5027896;28;20070;-81
2023/03/20 00:13:56;;;;;;;43.17;21.10;;;8.60;99.90;;;;;;5043762;28;20025;-80
2023/03/20 00:16:24;;;;;;;39.65;22.20;;;8.60;99.90;;;;;;5024420;28;20069;-80
2023/03/20 00:18:49;;;;;;;44.75;24.17;;;8.50;99.90;;;;;;5030785;28;20040;-79
2023/03/20 00:21:17;;;;;;;44.05;22.23;;;8.50;99.90;;;;;;5044904;28;20068;-80
2023/03/20 00:23:43;;;;;;;43.78;24.38;;;8.60;99.90;;;;;;5039836;28;20474;-79
2023/03/20 00:26:14;;;;;;;45.95;24.13;;;8.50;99.90;;;;;;5033654;28;20021;-81
2023/03/20 00:28:42;;;;;;;39.55;21.33;;;8.50;99.90;;;;;;5031978;28;20037;-80
2023/03/20 00:31:33;;;;;;;43.35;22.02;;;8.50;99.90;;;;;;5033088;28;20103;-81
2023/03/20 00:34:01;;;;;;;43.38;23.05;;;8.50;99.90;;;;;;5019289;28;20108;-81
2023/03/20 00:36:27;;;;;;;37.63;22.00;;;8.60;99.90;;;;;;5025225;28;20118;-81
2023/03/20 00:38:55;;;;;;;46.35;22.50;;;8.50;99.90;;;;;;5027003;28;20029;-80
2023/03/20 00:41:27;;;;;;;45.35;22.80;;;8.50;99.90;;;;;;5031622;28;20121;-80
2023/03/20 00:43:58;;;;;;;47.40;22.45;;;8.50;99.90;;;;;;5026274;28;20482;-80
2023/03/20 00:46:24;;;;;;;42.25;22.63;;;8.50;99.90;;;;;;5033212;28;20029;-80
2023/03/20 00:48:50;;;;;;;44.42;23.80;;;8.60;99.90;;;;;;5025946;28;20052;-80
2023/03/20 00:51:17;;;;;;;44.85;22.50;;;8.50;99.90;;;;;;5026540;28;20178;-81
2023/03/20 00:53:42;;;;;;;47.92;25.60;;;8.50;99.90;;;;;;5028284;28;20572;-80
2023/03/20 00:56:36;;;;;;;41.55;23.95;;;8.50;99.90;;;;;;5024726;28;20024;-80
2023/03/20 00:59:03;;;;;;;44.88;23.70;;;8.60;99.90;;;;;;5027635;28;20507;-81
2023/03/20 01:01:30;;;;;;;46.08;24.23;;;8.60;99.90;;;;;;5029953;28;20847;-80
2023/03/20 01:03:57;;;;;;;42.90;22.83;;;8.60;99.90;;;;;;5025042;28;20097;-82
2023/03/20 01:06:23;;;;;;;45.70;23.75;;;8.60;99.90;;;;;;5026790;28;20024;-80
2023/03/20 01:08:48;;;;;;;48.90;24.23;;;8.60;99.90;;;;;;5022817;28;20025;-80
2023/03/20 01:11:18;;;;;;;45.45;23.17;;;8.60;99.90;;;;;;5020016;28;20029;-81
2023/03/20 01:13:44;;;;;;;46.00;23.85;;;8.60;99.90;;;;;;5033241;28;20025;-81
2023/03/20 01:16:20;;;;;;;41.22;22.02;;;8.60;99.90;;;;;;5033342;28;20032;-81
2023/03/20 01:18:46;;;;;;;42.10;22.42;;;8.60;99.90;;;;;;5030504;28;20044;-80
2023/03/20 01:21:12;;;;;;;37.03;20.02;;;8.50;99.90;;;;;;5021758;28;20395;-81
2023/03/20 01:23:38;;;;;;;35.85;19.42;;;8.50;99.90;;;;;;5023378;28;20101;-80
2023/03/20 01:26:17;;;;;;;37.78;18.92;;;8.40;99.90;;;;;;5019481;28;20103;-81
2023/03/20 01:28:43;;;;;;;34.88;18.75;;;8.40;99.90;;;;;;5029987;28;20147;-81
2023/03/20 01:31:08;;;;;;;36.53;18.92;;;8.30;99.90;;;;;;5024295;28;20025;-81
2023/03/20 01:33:34;;;;;;;29.08;16.50;;;8.20;99.90;;;;;;5030486;28;20099;-81
2023/03/20 01:36:00;;;;;;;30.27;15.68;;;8.20;99.90;;;;;;5029895;28;20017;-80
2023/03/20 01:38:26;;;;;;;32.22;16.30;;;8.10;99.90;;;;;;5031826;28;20030;-80
2023/03/20 01:41:02;;;;;;;31.77;16.00;;;8.00;99.90;;;;;;5035644;28;20017;-82
2023/03/20 01:43:28;;;;;;;26.08;14.52;;;7.90;99.90;;;;;;5029323;28;20032;-80
2023/03/20 01:46:12;;;;;;;28.35;14.52;;;7.80;99.90;;;;;;5025945;28;20044;-80
2023/03/20 01:48:49;;;;;;;26.60;14.38;;;7.80;99.90;;;;;;5025368;28;20073;-81
2023/03/20 01:51:22;;;;;;;23.38;12.73;;;7.70;99.90;;;;;;5020547;28;20034;-81
2023/03/20 01:54:03;;;;;;;25.33;14.00;;;7.60;99.90;;;;;;5025091;28;20502;-81
2023/03/20 01:56:31;;;;;;;18.88;12.65;;;7.60;99.90;;;;;;5022617;28;20030;-80
2023/03/20 01:59:04;;;;;;;22.52;13.90;;;7.50;99.90;;;;;;5022960;28;20049;-80
2023/03/20 02:01:30;;;;;;;21.08;12.75;;;7.40;99.90;;;;;;5020635;28;20041;-80
2023/03/20 02:03:56;;;;;;;23.85;12.65;;;7.40;99.90;;;;;;5026335;28;20021;-81
2023/03/20 02:06:24;;;;;;;19.38;12.77;;;7.40;99.90;;;;;;5028534;28;20402;-80
2023/03/20 02:08:51;;;;;;;24.38;13.75;;;7.40;99.90;;;;;;5023579;28;20033;-81
2023/03/20 02:11:19;;;;;;;26.13;14.25;;;7.40;99.90;;;;;;5028397;28;20025;-81
2023/03/20 02:13:46;;;;;;;22.67;13.73;;;7.30;99.90;;;;;;5029037;28;20025;-80
2023/03/20 02:16:16;;;;;;;23.50;12.73;;;7.30;99.90;;;;;;5032388;28;20026;-81
2023/03/20 02:18:48;;;;;;;20.73;12.45;;;7.30;99.90;;;;;;5020199;28;20041;-80
2023/03/20 02:21:31;;;;;;;19.40;12.02;;;7.30;99.90;;;;;;5022719;28;20099;-80
2023/03/20 02:24:14;;;;;;;18.65;11.10;;;7.30;99.90;;;;;;5023824;28;20104;-80
2023/03/20 02:26:49;;;;;;;17.30;10.60;;;7.30;99.90;;;;;;5030071;28;20021;-80
2023/03/20 02:29:44;;;;;;;16.35;10.40;;;7.30;99.90;;;;;;5024284;28;20097;-80
2023/03/20 02:37:45;;;;;;;15.32;9.35;;;7.30;99.90;;;;;;5062763;28;20060;-52
2023/03/20 02:40:32;;;;;;;15.48;9.23;;;7.40;99.90;;;;;;5061132;28;20028;-55
2023/03/20 02:43:00;;;;;;;;;;;7.40;99.90;;;;;;5053677;28;20021;-54
2023/03/20 02:45:40;;;;;;;14.10;8.80;;;7.40;99.90;;;;;;5063152;28;19908;-53
2023/03/20 02:48:28;;;;;;;14.82;8.38;;;7.40;99.90;;;;;;5061648;28;20435;-53
2023/03/20 02:51:03;;;;;;;11.25;7.72;;;7.30;99.90;;;;;;5052184;28;20091;-56
2023/03/20 02:53:51;;;;;;;14.45;9.23;;;7.30;99.90;;;;;;5067365;28;20086;-54
2023/03/20 02:56:48;;;;;;;12.77;7.57;;;7.30;99.90;;;;;;5065406;28;20013;-54
2023/03/20 02:59:47;;;;;;;9.93;6.03;;;7.30;99.90;;;;;;5059703;28;20025;-56
2023/03/20 03:02:19;;;;;;;9.85;5.93;;;7.30;99.90;;;;;;5068201;28;20148;-52
2023/03/20 03:04:53;;;;;;;11.35;6.75;;;7.30;99.90;;;;;;5069430;28;20025;-50
2023/03/20 03:07:24;;;;;;;13.15;6.65;;;7.30;99.90;;;;;;5064025;28;20399;-52
2023/03/20 03:10:02;;;;;;;9.90;5.65;;;7.20;99.90;;;;;;5056200;28;20029;-51
2023/03/20 03:12:50;;;;;;;10.13;5.63;;;7.30;99.90;;;;;;5066871;28;20039;-52
2023/03/20 03:15:31;;;;;;;7.90;5.05;;;7.20;99.90;;;;;;5070359;28;20122;-50
2023/03/20 03:17:58;;;;;;;8.75;4.97;;;7.20;99.90;;;;;;5057012;28;20052;-55
2023/03/20 03:20:28;;;;;;;8.10;5.07;;;7.10;99.90;;;;;;5065472;28;21063;-50
2023/03/20 03:22:55;;;;;;;7.90;5.03;;;7.10;99.90;;;;;;5055422;28;20045;-52
2023/03/20 03:25:23;;;;;;;5.10;4.07;;;7.10;99.90;;;;;;5064890;28;20035;-53
2023/03/20 03:28:06;;;;;;;5.82;4.40;;;7.10;99.90;;;;;;5059370;28;20394;-50
2023/03/20 03:30:36;;;;;;;7.20;4.30;;;7.10;99.90;;;;;;5056868;28;20232;-51
2023/03/20 03:33:08;;;;;;;6.45;3.83;;;7.10;99.90;;;;;;5042952;28;20437;-55
2023/03/20 03:35:34;;;;;;;7.45;4.10;;;7.10;99.90;;;;;;5066357;28;20103;-54
2023/03/20 03:38:29;;;;;;;5.97;4.13;;;7.00;99.90;;;;;;5055719;28;20032;-56
2023/03/20 03:41:25;;;;;;;6.28;4.07;;;7.10;99.90;;;;;;5038470;28;20183;-58
2023/03/20 03:44:12;;;;;;;4.45;3.33;;;7.00;99.90;;;;;;5019554;28;20029;-53
2023/03/20 03:46:46;;;;;;;5.40;3.78;;;7.10;99.90;;;;;;5068127;28;20025;-56
2023/03/20 03:49:17;;;;;;;5.05;3.75;;;7.10;99.90;;;;;;5070619;28;20024;-54
2023/03/20 03:51:47;;;;;;;5.53;3.65;;;7.00;99.90;;;;;;5065309;28;20104;-56
2023/03/20 03:54:24;;;;;;;6.03;3.83;;;7.00;99.90;;;;;;5067601;28;20029;-50
2023/03/20 03:56:50;;;;;;;5.30;3.63;;;7.00;99.90;;;;;;5068397;28;20382;-56
2023/03/20 03:59:40;;;;;;;5.55;3.80;;;7.00;99.90;;;;;;5071111;28;20107;-55
2023/03/20 04:02:07;;;;;;;5.63;3.97;;;7.00;99.90;;;;;;5060466;28;20063;-54
2023/03/20 04:04:37;;;;;;;5.50;3.97;;;7.00;99.90;;;;;;5070169;28;20056;-51
2023/03/20 04:07:03;;;;;;;5.32;3.75;;;7.00;99.90;;;;;;5067363;28;20063;-52
2023/03/20 04:09:29;;;;;;;4.72;3.78;;;7.00;99.90;;;;;;5068830;28;20028;-54
2023/03/20 04:11:55;;;;;;;5.25;4.05;;;7.00;99.90;;;;;;5048535;28;20025;-55
2023/03/20 04:14:21;;;;;;;4.35;3.38;;;7.00;99.90;;;;;;5067341;28;20491;-56
2023/03/20 04:16:46;;;;;;;4.93;3.42;;;6.90;99.90;;;;;;5056808;28;20025;-56
2023/03/20 04:19:12;;;;;;;4.57;3.15;;;7.00;99.90;;;;;;5055662;28;20232;-56
2023/03/20 04:21:38;;;;;;;6.15;3.95;;;6.90;99.90;;;;;;5053665;28;20029;-57
2023/03/20 04:24:03;;;;;;;5.13;3.63;;;7.00;99.90;;;;;;5059742;28;20021;-55
2023/03/20 04:26:29;;;;;;;5.10;3.25;;;7.00;99.90;;;;;;5060703;28;20036;-56
2023/03/20 04:28:55;;;;;;;5.15;3.67;;;7.00;99.90;;;;;;5048870;28;20028;-55
2023/03/20 04:31:20;;;;;;;5.28;3.30;;;7.00;99.90;;;;;;5062805;28;20494;-58
2023/03/20 04:33:46;;;;;;;6.32;4.05;;;7.00;99.90;;;;;;5057677;28;20044;-55
2023/03/20 04:36:12;;;;;;;4.53;3.63;;;7.00;99.90;;;;;;5053217;28;20024;-57
2023/03/20 04:38:38;;;;;;;4.80;3.75;;;7.00;99.90;;;;;;5062676;28;20552;-55
2023/03/20 04:41:04;;;;;;;4.82;3.45;;;7.00;99.90;;;;;;5056481;28;20017;-55
2023/03/20 04:43:30;;;;;;;7.55;4.30;;;6.90;99.90;;;;;;5053949;28;20031;-57
2023/03/20 04:45:56;;;;;;;6.60;4.60;;;7.00;99.90;;;;;;5069769;28;20016;-56
2023/03/20 04:48:22;;;;;;;7.93;5.35;;;7.00;99.90;;;;;;5058112;28;20048;-53
2023/03/20 04:50:49;;;;;;;7.30;4.75;;;7.00;99.90;;;;;;5068592;28;20074;-57
2023/03/20 04:53:16;;;;;;;6.50;4.85;;;6.90;99.90;;;;;;5054522;28;20100;-56
2023/03/20 04:55:43;;;;;;;7.40;4.82;;;7.00;99.90;;;;;;5067719;28;20016;-55
2023/03/20 04:58:08;;;;;;;7.63;4.75;;;6.90;99.90;;;;;;5057455;28;20108;-57
2023/03/20 05:00:34;;;;;;;6.53;4.50;;;6.90;99.90;;;;;;5057588;28;20103;-56
2023/03/20 05:03:00;;;;;;;7.82;4.90;;;6.90;99.90;;;;;;5066467;28;20505;-58
2023/03/20 05:05:26;;;;;;;6.93;4.82;;;6.90;99.90;;;;;;5065793;28;20032;-57
2023/03/20 05:07:51;;;;;;;9.32;5.47;;;6.90;99.90;;;;;;5062576;28;20016;-57
2023/03/20 05:10:17;;;;;;;7.65;5.70;;;6.90;99.90;;;;;;5056198;28;20056;-56
2023/03/20 05:12:43;;;;;;;8.32;5.93;;;6.90;99.90;;;;;;5061984;28;20032;-53
2023/03/20 05:15:09;;;;;;;9.90;6.32;;;6.90;99.90;;;;;;5064142;28;20017;-56
2023/03/20 05:17:35;;;;;;;8.68;5.32;;;6.90;99.90;;;;;;5061049;28;20051;-56
2023/03/20 05:20:00;;;;;;;9.45;7.10;;;6.90;99.90;;;;;;5044327;28;20021;-56
2023/03/20 05:22:26;;;;;;;10.15;6.65;;;7.00;99.90;;;;;;5061822;28;20032;-54
2023/03/20 05:24:51;;;;;;;11.73;7.30;;;6.90;99.90;;;;;;5062145;28;20048;-57
2023/03/20 05:27:17;;;;;;;8.93;6.63;;;6.90;99.90;;;;;;5057925;28;20033;-54
2023/03/20 05:29:43;;;;;;;8.30;5.93;;;7.00;99.90;;;;;;5060957;28;20107;-57
2023/03/20 05:32:08;;;;;;;9.57;6.63;;;7.00;99.90;;;;;;5045124;28;20021;-57
2023/03/20 05:34:34;;;;;;;8.10;5.90;;;6.90;99.90;;;;;;5047720;28;20394;-56
2023/03/20 05:37:00;;;;;;;8.88;5.50;;;6.90;99.90;;;;;;5065490;28;20056;-53
2023/03/20 05:39:25;;;;;;;9.00;5.65;;;6.90;99.90;;;;;;5058842;28;20039;-57
2023/03/20 05:41:51;;;;;;;7.90;5.60;;;6.90;99.90;;;;;;5063525;28;20016;-56
2023/03/20 05:44:17;;;;;;;8.18;5.07;;;6.90;99.90;;;;;;5046869;28;20021;-55
2023/03/20 05:46:42;;;;;;;7.60;5.60;;;6.90;99.90;;;;;;5068041;28;20017;-56
2023/03/20 05:49:08;;;;;;;6.68;4.93;;;6.90;99.90;;;;;;5064820;28;20016;-54
2023/03/20 05:51:33;;;;;;;7.85;4.68;;;6.90;99.90;;;;;;5067258;28;20433;-54
2023/03/20 05:53:59;;;;;;;7.93;5.50;;;6.90;99.90;;;;;;5064570;28;20025;-56
2023/03/20 05:56:25;;;;;;;5.68;5.03;;;6.90;99.90;;;;;;5068426;28;20020;-57
2023/03/20 05:58:50;;;;;;;8.98;5.03;;;6.90;99.90;;;;;;5042919;28;20024;-59
2023/03/20 06:01:20;;;;;;;7.35;4.82;;;6.90;99.90;;;;;;5065725;28;20075;-57
2023/03/20 06:03:49;;;;;;;7.30;4.80;;;6.90;99.90;;;;;;5068454;28;20051;-56
2023/03/20 06:06:16;;;;;;;8.90;5.05;;;6.90;99.90;;;;;;5064731;28;20082;-57
2023/03/20 06:08:42;;;;;;;7.78;4.93;;;6.90;99.90;;;;;;5067633;28;20028;-57
2023/03/20 06:11:08;;;;;;;6.47;5.10;;;6.80;99.90;;;;;;5063218;28;20472;-54
2023/03/20 06:13:34;;;;;;;6.32;4.72;;;6.90;99.90;;;;;;5062817;28;20033;-56
2023/03/20 06:16:00;;;;;;;8.77;5.38;;;6.80;99.90;;;;;;5055548;28;20029;-55
2023/03/20 06:18:26;;;;;;;8.63;5.20;;;6.90;99.90;;;;;;5058904;28;20024;-55
2023/03/20 06:20:56;;;;;;;7.45;5.72;;;6.90;99.90;;;;;;5059327;28;20016;-58
2023/03/20 06:23:21;;;;;;;9.30;4.97;;;6.90;99.90;;;;;;5059414;28;20059;-57
2023/03/20 06:25:47;;;;;;;7.35;4.93;;;6.90;99.90;;;;;;5062135;28;20056;-53
2023/03/20 06:28:13;;;;;;;8.50;5.65;;;6.90;99.90;;;;;;5059566;28;20064;-55
2023/03/20 06:30:38;;;;;;;9.93;5.70;;;6.90;99.90;;;;;;5050347;28;20060;-54
2023/03/20 06:33:08;;;;;;;8.98;6.70;;;6.90;99.90;;;;;;5053476;28;20028;-55
2023/03/20 06:35:34;;;;;;;7.68;5.30;;;6.90;99.90;;;;;;5057553;28;20036;-56
2023/03/20 06:37:59;;;;;;;8.50;5.88;;;6.90;99.90;;;;;;5066357;28;20024;-56
2023/03/20 06:40:26;;;;;;;9.80;6.25;;;6.90;99.90;;;;;;5056092;28;20514;-57
2023/03/20 06:42:53;;;;;;;9.82;6.72;;;6.90;99.90;;;;;;5063916;28;20017;-56
2023/03/20 06:45:20;;;;;;;10.25;6.90;;;6.90;99.90;;;;;;5055998;28;20024;-57
2023/03/20 06:47:46;;;;;;;11.75;7.20;;;7.00;99.90;;;;;;5069119;28;20021;-54
2023/03/20 06:50:12;;;;;;;11.55;7.43;;;6.90;99.90;;;;;;5055037;28;20031;-57
2023/03/20 06:52:38;;;;;;;11.30;6.72;;;7.00;99.90;;;;;;5069980;28;20103;-57
2023/03/20 06:55:05;;;;;;;12.20;7.05;;;7.00;99.90;;;;;;5053243;28;20163;-54
2023/03/20 06:57:31;;;;;;;13.32;7.35;;;7.00;99.90;;;;;;5071302;28;20031;-58
2023/03/20 06:59:56;;;;;;;13.77;7.97;;;7.00;99.90;;;;;;5050858;28;20036;-55
2023/03/20 07:02:23;;;;;;;10.35;6.68;;;7.00;99.90;;;;;;5071262;28;20033;-55
2023/03/20 07:04:48;;;;;;;12.65;8.48;;;7.00;99.90;;;;;;5056080;28;20419;-54
2023/03/20 07:07:14;;;;;;;14.55;8.40;;;7.00;99.90;;;;;;5070571;28;20028;-55
2023/03/20 07:09:39;;;;;;;14.05;9.25;;;7.00;99.90;;;;;;5055152;28;20116;-56
2023/03/20 07:12:10;;;;;;;12.98;8.55;;;7.00;99.90;;;;;;5069197;28;20028;-56
2023/03/20 07:14:35;;;;;;;14.65;8.70;;;7.00;99.90;;;;;;5057876;28;20029;-56
2023/03/20 07:17:01;;;;;;;12.82;8.45;;;7.00;99.90;;;;;;5051405;28;20086;-53
2023/03/20 07:19:27;;;;;;;15.50;9.23;;;7.10;99.90;;;;;;5062484;28;20033;-52
2023/03/20 07:22:00;;;;;;;13.32;9.25;;;7.10;99.90;;;;;;5067717;28;20113;-56
2023/03/20 07:24:26;;;;;;;13.20;8.75;;;7.10;99.90;;;;;;5057810;28;20016;-57
2023/03/20 07:26:51;;;;;;;15.43;9.50;;;7.10;99.90;;;;;;5068837;28;20027;-57
2023/03/20 07:29:17;;;;;;;14.55;8.55;;;7.10;99.90;;;;;;5043366;28;20743;-55
2023/03/20 07:31:43;;;;;;;12.98;8.98;;;7.10;99.90;;;;;;5067638;28;20457;-54
2023/03/20 07:34:08;;;;;;;15.00;8.38;;;7.10;99.90;;;;;;5062189;28;20108;-56
2023/03/20 07:36:34;;;;;;;16.05;8.63;;;7.20;99.90;;;;;;5058027;28;20033;-56
2023/03/20 07:38:59;;;;;;;16.40;7.85;;;7.30;99.90;;;;;;5056629;28;20486;-54
2023/03/20 07:41:25;;;;;;;16.25;8.85;;;7.30;99.90;;;;;;5066222;28;20101;-55
2023/03/20 07:43:51;;;;;;;13.77;8.10;;;7.30;99.90;;;;;;5062678;28;20017;-57
2023/03/20 07:46:16;;;;;;;13.30;7.93;;;7.30;99.90;;;;;;5070458;28;20050;-56
2023/03/20 07:48:42;;;;;;;10.15;7.18;;;7.30;99.90;;;;;;5049396;28;20020;-56
2023/03/20 07:51:07;;;;;;;11.57;7.60;;;7.30;99.90;;;;;;5069778;28;20103;-54
2023/03/20 07:53:33;;;;;;;12.75;6.80;;;7.40;99.90;;;;;;5066664;28;20382;-57
2023/03/20 07:55:58;;;;;;;12.57;7.53;;;7.40;99.90;;;;;;5050870;28;20395;-57
2023/03/20 07:58:24;;;;;;;12.30;6.95;;;7.50;99.90;;;;;;5065384;28;20407;-56
2023/03/20 08:00:49;;;;;;;9.80;6.40;;;7.50;99.90;;;;;;5067259;28;20028;-53
2023/03/20 08:03:15;;;;;;;8.50;6.28;;;7.50;99.90;;;;;;5070197;28;20031;-57
2023/03/20 08:05:40;;;;;;;9.73;6.68;;;7.50;99.90;;;;;;5067233;28;20024;-55
2023/03/20 08:08:06;;;;;;;8.38;5.80;;;7.50;99.90;;;;;;5069899;28;20095;-57
2023/03/20 08:10:31;;;;;;;9.52;6.68;;;7.60;99.90;;;;;;5065614;28;20107;-56
2023/03/20 08:12:57;;;;;;;9.93;6.35;;;7.60;99.90;;;;;;5068649;28;20060;-58
2023/03/20 08:15:23;;;;;;;6.90;5.18;;;7.60;99.90;;;;;;5065240;28;20082;-57
2023/03/20 08:17:48;;;;;;;7.00;5.60;;;7.70;99.90;;;;;;5067428;28;20027;-55
2023/03/20 08:20:15;;;;;;;10.40;5.55;;;7.70;99.90;;;;;;5062570;28;20090;-55
2023/03/20 08:22:42;;;;;;;7.38;5.20;;;7.70;99.90;;;;;;5065534;28;20031;-57
2023/03/20 08:25:08;;;;;;;11.32;5.95;;;7.70;99.90;;;;;;5062595;28;20037;-56
2023/03/20 08:27:35;;;;;;;7.22;5.28;;;7.70;99.90;;;;;;5049775;28;20056;-57
2023/03/20 08:30:01;;;;;;;5.95;5.18;;;7.70;99.90;;;;;;5064523;28;20116;-56
2023/03/20 08:32:26;;;;;;;7.75;5.35;;;7.80;99.90;;;;;;5053889;28;20125;-56
2023/03/20 08:34:53;;;;;;;8.70;6.05;;;7.80;99.90;;;;;;5065964;28;20031;-56
2023/03/20 08:37:20;;;;;;;5.70;4.85;;;7.80;99.90;;;;;;5065204;28;20028;-54
2023/03/20 08:39:46;;;;;;;5.85;5.05;;;7.80;99.90;;;;;;5065434;28;20024;-54
2023/03/20 08:42:12;;;;;;;10.80;5.47;;;7.80;99.90;;;;;;5059790;28;20275;-55
2023/03/20 08:44:37;;;;;;;11.15;6.15;;;7.90;99.90;;;;;;5066709;28;20032;-54
2023/03/20 08:47:04;;;;;;;11.40;5.25;;;7.90;99.90;;;;;;5059596;28;20449;-56
2023/03/20 08:49:30;;;;;;;7.68;5.68;;;8.00;99.90;;;;;;5055632;28;20033;-55
2023/03/20 08:51:56;;;;;;;9.20;5.88;;;8.00;99.90;;;;;;5061068;28;20036;-56
2023/03/20 08:54:21;;;;;;;8.02;4.78;;;8.00;99.90;;;;;;5057156;28;20472;-56
2023/03/20 08:56:47;;;;;;;7.80;4.78;;;8.10;99.90;;;;;;5052244;28;20029;-56
2023/03/20 08:59:12;;;;;;;8.45;5.28;;;8.10;99.90;;;;;;5064279;28;20044;-56
2023/03/20 09:01:38;;;;;;;7.13;5.07;;;8.20;99.90;;;;;;5050310;28;20049;-54
2023/03/20 09:04:04;;;;;;;10.13;4.80;;;8.20;99.90;;;;;;5069716;28;20021;-56
2023/03/20 09:06:31;;;;;;;8.45;4.78;;;8.20;99.90;;;;;;5056319;28;20056;-55
2023/03/20 09:08:57;;;;;;;7.07;5.00;;;8.20;99.90;;;;;;5063079;28;20037;-54
2023/03/20 09:11:23;;;;;;;7.70;4.40;;;8.20;99.90;;;;;;5063927;28;20041;-54
2023/03/20 09:13:48;;;;;;;6.18;4.15;;;8.30;99.90;;;;;;5062189;28;20159;-56
2023/03/20 09:16:14;;;;;;;7.25;4.15;;;8.30;99.90;;;;;;5059803;28;20161;-56
2023/03/20 09:18:40;;;;;;;6.40;4.45;;;8.30;99.90;;;;;;5064093;28;20031;-55
2023/03/20 09:21:06;;;;;;;6.90;4.57;;;8.30;99.90;;;;;;5062652;28;20095;-54
2023/03/20 09:23:32;;;;;;;7.90;4.53;;;8.40;99.90;;;;;;5063742;28;20021;-56
2023/03/20 09:25:57;;;;;;;6.75;5.15;;;8.40;99.90;;;;;;5063887;28;20524;-54
2023/03/20 09:28:23;;;;;;;4.85;4.10;;;8.40;99.90;;;;;;5050790;28;20036;-56
2023/03/20 09:30:53;;;;;;;7.22;4.00;;;8.40;99.90;;;;;;5053554;28;20024;-55
2023/03/20 09:33:18;;;;;;;6.55;4.05;;;8.50;99.90;;;;;;5060902;28;20500;-56
2023/03/20 09:35:44;;;;;;;6.70;4.43;;;8.40;99.90;;;;;;5057656;28;20037;-56
2023/03/20 09:38:11;;;;;;;5.22;4.28;;;8.40;99.90;;;;;;5065253;28;20020;-58
2023/03/20 09:40:52;;;;;;;6.25;4.00;;;8.50;99.90;;;;;;5046241;28;20026;-58
2023/03/20 09:43:27;;;;;;;8.15;4.60;;;8.50;99.90;;;;;;5065539;28;20062;-57
2023/03/20 09:46:36;;;;;;;7.53;4.35;;;8.60;99.90;;;;;;5027846;28;20107;-55
2023/03/20 09:49:17;;;;;;;7.13;3.97;;;8.60;99.90;;;;;;4996303;28;20037;-56
2023/03/20 09:51:47;;;;;;;7.32;4.75;;;8.50;99.90;;;;;;5066806;28;20016;-57
2023/03/20 09:54:30;;;;;;;5.75;4.78;;;8.50;99.90;;;;;;5048302;28;20028;-56
2023/03/20 09:56:56;;;;;;;9.68;5.38;;;8.50;99.90;;;;;;5066163;28;20020;-58
2023/03/20 09:59:25;;;;;;;9.55;5.00;;;8.50;99.90;;;;;;5064784;28;20560;-57
2023/03/20 10:01:54;;;;;;;8.60;4.15;;;8.60;99.90;;;;;;5062229;28;20020;-57
2023/03/20 10:04:20;;;;;;;6.18;4.72;;;8.60;99.90;;;;;;5066575;28;20016;-55
2023/03/20 10:06:46;;;;;;;9.27;5.15;;;8.60;99.90;;;;;;5044124;28;20112;-55
2023/03/20 10:09:20;;;;;;;7.43;4.82;;;8.70;99.90;;;;;;5047313;28;20101;-55
2023/03/20 10:11:59;;;;;;;9.68;5.03;;;8.70;99.90;;;;;;5063973;28;20084;-58
2023/03/20 10:14:51;;;;;;;10.30;5.28;;;8.70;99.90;;;;;;5073194;28;20111;-56
2023/03/20 10:17:41;;;;;;;10.38;5.93;;;8.60;99.90;;;;;;5069543;28;20025;-58
2023/03/20 10:20:13;;;;;;;10.60;6.15;;;8.70;99.90;;;;;;5053214;28;20025;-58
2023/03/20 10:22:49;;;;;;;9.18;6.05;;;8.70;99.90;;;;;;5052138;28;20021;-56
2023/03/20 10:25:31;;;;;;;10.02;5.15;;;8.80;99.90;;;;;;5054659;28;20052;-56
2023/03/20 10:28:03;;;;;;;10.15;6.05;;;8.80;99.90;;;;;;5049279;28;20140;-54
2023/03/20 10:30:37;;;;;;;6.65;5.43;;;8.80;99.90;;;;;;5041765;28;20031;-53
2023/03/20 10:33:25;;;;;;;8.40;5.63;;;8.80;99.90;;;;;;5058137;28;20036;-56
2023/03/20 10:36:03;;;;;;;12.85;6.43;;;8.80;99.90;;;;;;5058414;28;20021;-55
2023/03/20 10:38:44;;;;;;;12.30;6.50;;;8.90;99.90;;;;;;5051864;28;20044;-54
2023/03/20 10:41:15;;;;;;;11.65;6.28;;;8.90;99.90;;;;;;5051088;28;20035;-55
2023/03/20 10:43:44;;;;;;;11.60;6.18;;;8.90;99.90;;;;;;5059177;28;20045;-57
2023/03/20 10:46:23;;;;;;;11.60;6.35;;;8.90;99.90;;;;;;5066754;28;20028;-58
2023/03/20 10:49:03;;;;;;;10.95;6.07;;;9.00;99.90;;;;;;5067909;28;20475;-56
2023/03/20 10:51:40;;;;;;;11.77;6.32;;;9.10;99.90;;;;;;5036676;28;20033;-56
2023/03/20 10:54:19;;;;;;;10.15;6.30;;;9.10;99.90;;;;;;5058839;28;20017;-57
2023/03/20 10:56:48;;;;;;;7.95;5.97;;;9.20;99.90;;;;;;5057539;28;20035;-54
2023/03/20 10:59:35;;;;;;;10.82;6.65;;;9.20;99.90;;;;;;5061822;28;20044;-57
2023/03/20 11:02:01;;;;;;;9.25;6.30;;;9.20;99.90;;;;;;5058196;28;20090;-57
2023/03/20 11:04:26;;;;;;;9.77;6.70;;;9.20;99.90;;;;;;5060608;28;20033;-57
2023/03/20 11:06:56;;;;;;;9.30;6.60;;;9.10;99.90;;;;;;5067509;28;20033;-53
2023/03/20 11:09:28;;;;;;;10.15;6.47;;;9.10;99.90;;;;;;5044945;28;20075;-56
2023/03/20 11:11:57;;;;;;;8.35;6.25;;;9.10;99.90;;;;;;5041188;28;20275;-57
2023/03/20 11:14:25;;;;;;;9.50;7.25;;;9.10;99.90;;;;;;5065866;28;20071;-55
2023/03/20 11:16:53;;;;;;;12.20;6.47;;;9.20;99.90;;;;;;5057924;28;20021;-53
2023/03/20 11:19:20;;;;;;;13.25;6.50;;;9.20;99.90;;;;;;5060287;28;20036;-59
2023/03/20 11:21:55;;;;;;;10.60;6.70;;;9.30;99.90;;;;;;5067386;28;20025;-57
2023/03/20 11:24:35;;;;;;;11.65;6.55;;;9.40;99.90;;;;;;5052017;28;20028;-56
2023/03/20 11:27:14;;;;;;;8.27;5.63;;;9.40;99.90;;;;;;5041815;28;20029;-57
2023/03/20 11:29:42;;;;;;;9.85;6.07;;;9.40;99.90;;;;;;5060296;28;20068;-56
2023/03/20 11:32:17;;;;;;;7.88;5.80;;;9.40;99.90;;;;;;5063560;28;20037;-56
2023/03/20 11:34:42;;;;;;;8.13;5.85;;;9.30;99.90;;;;;;5060131;28;20036;-56
2023/03/20 11:37:28;;;;;;;10.20;5.18;;;9.30;99.90;;;;;;5061926;28;20422;-57
2023/03/20 11:40:22;;;;;;;10.90;6.15;;;9.30;99.90;;;;;;5059427;28;20025;-56
2023/03/20 11:42:54;;;;;;;9.82;6.15;;;9.20;99.90;;;;;;5065173;28;20498;-57
2023/03/20 11:45:20;;;;;;;9.80;5.82;;;9.20;99.90;;;;;;5058259;28;20025;-57
2023/03/20 11:47:55;;;;;;;10.90;5.70;;;9.10;99.90;;;;;;5059061;28;20025;-56
2023/03/20 11:50:32;;;;;;;12.48;5.82;;;9.10;99.90;;;;;;5055480;28;20586;-56
2023/03/20 11:52:59;;;;;;;7.70;5.63;;;9.10;99.90;;;;;;5046998;28;20038;-57
2023/03/20 11:55:31;;;;;;;11.75;6.70;;;9.20;99.90;;;;;;5058428;28;20029;-54
2023/03/20 11:58:05;;;;;;;10.07;5.97;;;9.20;99.90;;;;;;5058867;28;20506;-56
2023/03/20 12:00:38;;;;;;;10.40;5.57;;;9.20;99.90;;;;;;5073679;22;20525;-55
2023/03/20 12:03:31;;;;;;;11.48;5.47;;;9.30;99.90;;;;;;5068741;28;20043;-51
2023/03/20 12:05:59;;;;;;;10.25;5.80;;;9.30;99.90;;;;;;5067532;28;20025;-51
2023/03/20 12:08:28;;;;;;;10.73;5.55;;;9.40;99.90;;;;;;5069380;28;20091;-52
2023/03/20 12:10:59;;;;;;;11.60;5.70;;;9.40;99.90;;;;;;5074611;28;20057;-53
2023/03/20 12:13:32;;;;;;;7.60;4.90;;;9.50;99.90;;;;;;5073131;28;20078;-51
2023/03/20 12:16:03;;;;;;;8.10;5.38;;;9.50;99.90;;;;;;5080454;28;20020;-53
2023/03/20 12:18:42;;;;;;;6.15;4.63;;;9.60;99.90;;;;;;5073389;28;20021;-53
2023/03/20 12:21:37;;;;;;;7.82;4.80;;;9.60;99.90;;;;;;5076942;28;20039;-54
2023/03/20 12:24:12;;;;;;;12.95;5.82;;;9.60;99.90;;;;;;5062902;28;20016;-52
2023/03/20 12:26:51;;;;;;;8.45;5.15;;;9.60;99.90;;;;;;5084907;28;20023;-52
2023/03/20 12:29:35;;;;;;;6.60;5.22;;;9.60;99.90;;;;;;5075464;28;20020;-54
2023/03/20 12:32:05;;;;;;;11.82;5.80;;;9.60;99.90;;;;;;5073284;28;20027;-55
2023/03/20 12:34:37;;;;;;;7.18;5.22;;;9.70;99.90;;;;;;5086803;28;20028;-52
2023/03/20 12:37:03;;;;;;;8.18;5.22;;;9.70;99.90;;;;;;5085704;28;20016;-53
2023/03/20 12:39:40;;;;;;;7.07;5.65;;;9.80;99.90;;;;;;5086604;28;20093;-54
2023/03/20 12:42:50;;;;;;;7.97;5.05;;;9.80;99.90;;;;;;5085016;28;20016;-53
2023/03/20 12:45:22;;;;;;;9.65;5.43;;;9.80;99.90;;;;;;5075043;28;20027;-55
2023/03/20 12:48:19;;;;;;;12.45;6.55;;;9.90;99.90;;;;;;5083057;28;20024;-52
2023/03/20 12:51:21;;;;;;;10.63;5.40;;;10.10;99.90;;;;;;5087179;28;20031;-56
2023/03/20 12:54:12;;;;;;;7.75;5.07;;;10.30;99.90;;;;;;5084803;28;20116;-55
2023/03/20 12:57:07;;;;;;;10.10;6.03;;;10.50;99.90;;;;;;5087673;28;20036;-55
2023/03/20 12:59:54;;;;;;;7.40;4.70;;;10.60;99.90;;;;;;5083423;28;20032;-51
2023/03/20 13:02:41;;;;;;;5.50;4.82;;;10.60;99.90;;;;;;5081375;28;20541;-56
2023/03/20 13:05:25;;;;;;;11.93;5.65;;;10.60;99.90;;;;;;5078438;28;20027;-54
2023/03/20 13:08:31;;;;;;;7.47;5.32;;;10.50;99.90;;;;;;5074294;28;20102;-52
2023/03/20 13:11:20;;;;;;;6.63;5.38;;;10.40;99.90;;;;;;5079629;28;20028;-56
2023/03/20 13:14:05;;;;;;;7.80;4.70;;;10.40;99.90;;;;;;5048872;28;20379;-55
2023/03/20 13:16:45;;;;;;;7.38;4.15;;;10.30;99.90;;;;;;5079270;28;20043;-52